createdAt,value
2022-08-24T00:02:24.992Z,86.92
2022-08-24T00:04:52.899Z,87.07
2022-08-24T00:07:27.102Z,87.16
2022-08-24T00:09:55.425Z,87.04
2022-08-24T00:12:22.187Z,87.02
2022-08-24T00:14:49.381Z,87.02
2022-08-24T00:17:17.373Z,87.16
2022-08-24T00:19:44.250Z,87.15
2022-08-24T00:22:11.012Z,87.21
2022-08-24T00:24:37.649Z,87.27
2022-08-24T00:27:06.538Z,87.11
2022-08-24T00:29:34.135Z,87.15
2022-08-24T00:32:00.800Z,87.32
2022-08-24T00:34:27.876Z,87.32
2022-08-24T00:36:54.613Z,87.32
2022-08-24T00:39:21.491Z,87.32
2022-08-24T00:41:50.078Z,87.34
2022-08-24T00:44:18.039Z,87.28
2022-08-24T00:46:50.313Z,87.47
2022-08-24T00:49:36.275Z,87.47
2022-08-24T00:52:08.451Z,87.38
2022-08-24T00:54:46.307Z,87.57
2022-08-24T00:57:15.597Z,87.28
2022-08-24T01:00:04.582Z,87.12
2022-08-24T01:02:33.197Z,87.10
2022-08-24T01:05:03.803Z,87.12
2022-08-24T01:07:32.849Z,87.08
2022-08-24T01:10:04.787Z,87.23
2022-08-24T01:12:33.837Z,87.09
2022-08-24T01:15:02.312Z,87.16
2022-08-24T01:17:47.595Z,87.21
2022-08-24T01:20:15.957Z,87.32
2022-08-24T01:22:53.427Z,87.31
2022-08-24T01:25:21.987Z,87.49
2022-08-24T01:27:50.175Z,87.60
2022-08-24T01:30:17.822Z,87.60
2022-08-24T01:32:59.414Z,87.77
2022-08-24T01:35:26.794Z,87.67
2022-08-24T01:37:55.113Z,87.70
2022-08-24T01:40:26.525Z,87.81
2022-08-24T01:42:53.365Z,87.78
2022-08-24T01:45:21.580Z,87.68
2022-08-24T01:47:48.316Z,87.72
2022-08-24T01:50:15.078Z,87.91
2022-08-24T01:53:03.863Z,87.90
2022-08-24T01:55:30.186Z,88.09
2022-08-24T01:57:57.154Z,87.96
2022-08-24T02:00:24.817Z,88.01
2022-08-24T02:02:51.708Z,88.07
2022-08-24T02:05:18.436Z,88.28
2022-08-24T02:07:46.527Z,88.29
2022-08-24T02:10:14.858Z,88.33
2022-08-24T02:12:43.397Z,88.28
2022-08-24T02:15:10.753Z,88.22
2022-08-24T02:17:38.047Z,88.15
2022-08-24T02:20:06.431Z,88.14
2022-08-24T02:22:33.113Z,88.04
2022-08-24T02:25:00.074Z,88.14
2022-08-24T02:27:26.705Z,88.01
2022-08-24T02:29:53.506Z,87.88
2022-08-24T02:32:20.556Z,87.74
2022-08-24T02:34:48.713Z,87.83
2022-08-24T02:37:15.984Z,87.86
2022-08-24T02:39:44.520Z,87.91
2022-08-24T02:42:15.882Z,87.88
2022-08-24T02:44:42.528Z,87.82
2022-08-24T02:47:10.273Z,87.73
2022-08-24T02:49:37.731Z,87.75
2022-08-24T02:52:04.488Z,87.42
2022-08-24T02:54:33.212Z,87.39
2022-08-24T02:57:00.457Z,87.55
2022-08-24T02:59:27.621Z,87.53
2022-08-24T03:01:54.586Z,87.75
2022-08-24T03:04:23.270Z,87.51
2022-08-24T03:06:50.045Z,87.46
2022-08-24T03:09:17.526Z,87.56
2022-08-24T03:11:45.543Z,87.59
2022-08-24T03:14:13.287Z,87.58
2022-08-24T03:16:40.214Z,87.60
2022-08-24T03:19:07.120Z,87.48
2022-08-24T03:21:36.115Z,87.64
2022-08-24T03:24:02.969Z,87.61
2022-08-24T03:26:31.134Z,87.50
2022-08-24T03:28:57.759Z,87.47
2022-08-24T03:31:26.285Z,87.38
2022-08-24T03:33:53.086Z,87.28
2022-08-24T03:36:19.897Z,87.40
2022-08-24T03:38:46.530Z,87.43
2022-08-24T03:41:13.438Z,87.34
2022-08-24T03:43:46.808Z,87.59
2022-08-24T03:46:22.260Z,87.66
2022-08-24T03:48:52.608Z,87.44
2022-08-24T03:51:23.559Z,87.40
2022-08-24T03:53:51.580Z,87.33
2022-08-24T03:56:19.940Z,87.31
2022-08-24T03:58:46.819Z,87.25
2022-08-24T04:01:13.936Z,87.15
2022-08-24T04:03:43.416Z,87.11
2022-08-24T04:06:12.659Z,87.02
2022-08-24T04:08:40.971Z,87.15
2022-08-24T04:11:15.327Z,87.23
2022-08-24T04:13:42.431Z,87.20
2022-08-24T04:16:12.896Z,87.32
2022-08-24T04:18:41.898Z,87.51
2022-08-24T04:21:24.782Z,87.51
2022-08-24T04:23:52.349Z,87.56
2022-08-24T04:26:44.387Z,87.49
2022-08-24T04:29:11.734Z,87.72
2022-08-24T04:31:47.930Z,87.73
2022-08-24T04:34:16.075Z,87.73
2022-08-24T04:36:44.874Z,87.72
2022-08-24T04:39:12.623Z,87.75
2022-08-24T04:42:03.185Z,87.86
2022-08-24T04:44:33.835Z,87.98
2022-08-24T04:47:01.510Z,87.90
2022-08-24T04:49:29.019Z,87.92
2022-08-24T04:51:56.084Z,88.02
2022-08-24T04:54:22.933Z,88.21
2022-08-24T04:57:02.102Z,88.21
2022-08-24T04:59:28.843Z,88.20
2022-08-24T05:01:55.537Z,88.21
2022-08-24T05:04:22.173Z,88.09
2022-08-24T05:06:48.849Z,88.07
2022-08-24T05:09:21.200Z,87.94
2022-08-24T05:11:50.083Z,88.01
2022-08-24T05:14:24.578Z,87.98
2022-08-24T05:16:54.840Z,87.92
2022-08-24T05:19:23.232Z,88.02
2022-08-24T05:21:50.439Z,87.94
2022-08-24T05:24:19.537Z,88.01
2022-08-24T05:26:46.542Z,87.96
2022-08-24T05:29:14.595Z,87.82
2022-08-24T05:31:46.623Z,87.70
2022-08-24T05:34:14.571Z,87.63
2022-08-24T05:36:42.625Z,87.55
2022-08-24T05:39:16.763Z,87.48
2022-08-24T05:41:51.079Z,87.53
2022-08-24T05:44:27.907Z,87.41
2022-08-24T05:47:01.158Z,87.68
2022-08-24T05:49:28.767Z,87.54
2022-08-24T05:51:55.588Z,87.45
2022-08-24T05:54:23.510Z,87.27
2022-08-24T05:56:55.570Z,87.39
2022-08-24T05:59:23.467Z,87.60
2022-08-24T06:01:51.266Z,87.60
2022-08-24T06:04:18.396Z,87.53
2022-08-24T06:06:45.149Z,87.65
2022-08-24T06:09:16.697Z,87.82
2022-08-24T06:11:46.146Z,88.07
2022-08-24T06:14:15.810Z,87.92
2022-08-24T06:16:53.787Z,87.98
2022-08-24T06:19:21.525Z,88.00
2022-08-24T06:21:50.092Z,87.95
2022-08-24T06:24:18.081Z,87.88
2022-08-24T06:27:05.246Z,87.94
2022-08-24T06:29:34.216Z,87.99
2022-08-24T06:32:18.144Z,88.10
2022-08-24T06:34:44.745Z,88.17
2022-08-24T06:37:11.607Z,88.15
2022-08-24T06:39:38.597Z,87.98
2022-08-24T06:42:05.684Z,87.99
2022-08-24T06:44:33.259Z,87.82
2022-08-24T06:47:08.546Z,87.70
2022-08-24T06:49:37.271Z,87.70
2022-08-24T06:52:05.359Z,88.19
2022-08-24T06:54:32.961Z,88.73
2022-08-24T06:57:02.858Z,89.00
2022-08-24T06:59:29.530Z,89.54
2022-08-24T07:01:56.694Z,89.70
2022-08-24T07:04:28.209Z,89.72
2022-08-24T07:07:13.937Z,89.93
2022-08-24T07:09:42.733Z,90.00
2022-08-24T07:12:09.463Z,89.84
2022-08-24T07:14:37.120Z,89.72
2022-08-24T07:17:03.849Z,89.39
2022-08-24T07:19:32.122Z,88.70
2022-08-24T07:22:00.032Z,88.79
2022-08-24T07:24:27.108Z,88.98
2022-08-24T07:26:54.466Z,88.89
2022-08-24T07:32:10.176Z,89.39
2022-08-24T07:34:40.049Z,89.47
2022-08-24T07:37:07.913Z,89.65
2022-08-24T07:39:37.355Z,89.98
2022-08-24T07:42:14.648Z,89.98
2022-08-24T07:44:44.993Z,89.78
2022-08-24T07:47:36.490Z,89.70
2022-08-24T07:49:59.295Z,89.71
2022-08-24T07:52:27.928Z,88.95
2022-08-24T07:54:55.525Z,89.26
2022-08-24T07:57:22.260Z,89.14
2022-08-24T07:59:48.935Z,88.82
2022-08-24T08:02:17.197Z,88.19
2022-08-24T08:04:48.181Z,87.79
2022-08-24T08:07:15.093Z,87.91
2022-08-24T08:09:41.912Z,88.42
2022-08-24T08:12:11.066Z,88.04
2022-08-24T08:14:49.795Z,87.32
2022-08-24T08:17:16.793Z,86.55
2022-08-24T08:19:43.867Z,86.70
2022-08-24T08:22:29.245Z,86.63
2022-08-24T08:25:14.695Z,86.26
2022-08-24T08:27:42.216Z,86.15
2022-08-24T08:30:09.477Z,85.98
2022-08-24T08:32:36.973Z,100.00
2022-08-24T08:35:04.578Z,100.00
2022-08-24T08:37:33.759Z,100.00
2022-08-24T08:40:00.724Z,100.00
2022-08-24T08:42:42.270Z,85.07
2022-08-24T08:45:17.157Z,84.92
2022-08-24T08:48:06.405Z,84.43
2022-08-24T08:50:40.465Z,83.82
2022-08-24T08:53:45.446Z,83.71
2022-08-24T08:56:28.427Z,82.76
2022-08-24T08:59:20.062Z,80.03
2022-08-24T09:02:06.043Z,79.68
2022-08-24T09:04:51.287Z,79.70
2022-08-24T09:07:31.309Z,79.59
2022-08-24T09:10:27.167Z,79.29
2022-08-24T09:13:11.255Z,79.30
2022-08-24T09:15:57.970Z,78.42
2022-08-24T09:18:55.734Z,77.14
2022-08-24T09:22:01.863Z,77.88
2022-08-24T09:24:54.668Z,78.20
2022-08-24T09:27:53.388Z,77.24
2022-08-24T09:30:26.590Z,76.27
2022-08-24T09:33:06.826Z,76.84
2022-08-24T09:35:45.672Z,74.88
2022-08-24T09:38:24.295Z,74.74
2022-08-24T09:41:14.902Z,74.89
2022-08-24T09:44:03.308Z,75.17
2022-08-24T09:46:48.493Z,74.46
2022-08-24T09:49:36.903Z,73.62
2022-08-24T09:52:15.942Z,73.11
2022-08-24T09:54:57.392Z,73.58
2022-08-24T09:58:00.174Z,72.37
2022-08-24T10:00:31.745Z,71.84
2022-08-24T10:03:03.535Z,72.85
2022-08-24T10:06:04.742Z,72.69
2022-08-24T10:08:56.169Z,70.98
2022-08-24T10:11:34.030Z,71.09
2022-08-24T10:14:13.734Z,71.35
2022-08-24T10:17:10.881Z,71.66
2022-08-24T10:19:49.688Z,70.94
2022-08-24T10:22:45.953Z,69.67
2022-08-24T10:25:24.835Z,69.25
2022-08-24T10:28:27.466Z,69.67
2022-08-24T10:30:56.792Z,70.18
2022-08-24T10:33:25.452Z,70.04
2022-08-24T10:36:10.572Z,69.42
2022-08-24T10:38:58.852Z,68.94
2022-08-24T10:41:29.669Z,68.84
2022-08-24T10:44:20.734Z,68.21
2022-08-24T10:46:51.993Z,68.71
2022-08-24T10:49:36.395Z,68.73
2022-08-24T10:52:38.060Z,67.50
2022-08-24T10:55:22.771Z,67.46
2022-08-24T10:58:14.650Z,68.55
2022-08-24T11:00:41.435Z,67.58
2022-08-24T11:03:28.467Z,67.22
2022-08-24T11:05:56.494Z,66.91
2022-08-24T11:08:26.347Z,67.68
2022-08-24T11:11:05.285Z,67.86
2022-08-24T11:13:32.026Z,67.48
2022-08-24T11:16:00.852Z,67.11
2022-08-24T11:18:47.430Z,67.17
2022-08-24T11:21:31.654Z,67.03
2022-08-24T11:24:02.828Z,67.04
2022-08-24T11:26:29.798Z,67.02
2022-08-24T11:29:01.180Z,67.13
2022-08-24T11:31:36.229Z,65.45
2022-08-24T11:34:09.327Z,64.85
2022-08-24T11:36:54.321Z,64.75
2022-08-24T11:39:24.002Z,65.33
2022-08-24T11:42:02.602Z,65.55
2022-08-24T11:44:32.203Z,65.18
2022-08-24T11:47:05.656Z,64.22
2022-08-24T11:50:04.255Z,64.17
2022-08-24T11:52:40.018Z,63.07
2022-08-24T11:55:09.396Z,63.72
2022-08-24T11:58:02.922Z,64.12
2022-08-24T12:00:51.995Z,100.00
2022-08-24T12:03:52.591Z,100.00
2022-08-24T12:06:38.001Z,100.00
2022-08-24T12:09:31.009Z,100.00
2022-08-24T12:12:10.073Z,100.00
2022-08-24T12:14:45.642Z,100.00
2022-08-24T12:17:28.692Z,100.00
2022-08-24T12:20:01.320Z,100.00
2022-08-24T12:22:28.843Z,100.00
2022-08-24T12:24:58.586Z,100.00
2022-08-24T12:27:32.556Z,100.00
2022-08-24T12:30:05.752Z,100.00
2022-08-24T12:32:45.446Z,100.00
2022-08-24T12:35:27.336Z,100.00
2022-08-24T12:38:26.696Z,100.00
2022-08-24T12:41:00.174Z,100.00
2022-08-24T12:43:45.348Z,100.00
2022-08-24T12:46:13.731Z,100.00
2022-08-24T12:48:54.990Z,100.00
2022-08-24T12:51:46.831Z,100.00
2022-08-24T12:54:50.851Z,100.00
2022-08-24T12:57:54.199Z,100.00
2022-08-24T13:00:27.482Z,100.00
2022-08-24T13:03:20.035Z,100.00
2022-08-24T13:05:48.594Z,100.00
2022-08-24T13:08:40.521Z,100.00
2022-08-24T13:11:13.480Z,100.00
2022-08-24T13:14:26.796Z,100.00
2022-08-24T13:16:56.489Z,100.00
2022-08-24T13:19:23.019Z,100.00
2022-08-24T13:21:54.549Z,100.00
2022-08-24T13:24:30.544Z,100.00
2022-08-24T13:27:12.631Z,100.00
2022-08-24T13:29:52.405Z,100.00
2022-08-24T13:32:32.633Z,100.00
2022-08-24T13:34:59.782Z,100.00
2022-08-24T13:37:28.843Z,100.00
2022-08-24T13:40:17.865Z,100.00
2022-08-24T13:43:21.840Z,100.00
2022-08-24T13:45:57.071Z,100.00
2022-08-24T13:48:45.463Z,100.00
2022-08-24T13:51:33.257Z,100.00
2022-08-24T13:54:20.185Z,100.00
2022-08-24T13:57:17.490Z,64.12
2022-08-24T14:00:19.985Z,58.72
2022-08-24T14:02:46.835Z,100.00
2022-08-24T14:05:36.056Z,100.00
2022-08-24T14:08:18.715Z,100.00
2022-08-24T14:11:04.297Z,100.00
2022-08-24T14:13:47.976Z,100.00
2022-08-24T14:17:08.507Z,100.00
2022-08-24T14:20:33.462Z,100.00
2022-08-24T14:23:37.693Z,100.00
2022-08-24T14:26:41.293Z,100.00
2022-08-24T14:29:32.024Z,100.00
2022-08-24T14:32:11.812Z,100.00
2022-08-24T14:34:41.967Z,100.00
2022-08-24T14:37:22.826Z,100.00
2022-08-24T14:39:59.824Z,100.00
2022-08-24T14:42:41.221Z,100.00
2022-08-24T14:45:14.371Z,100.00
2022-08-24T14:47:59.883Z,58.72
2022-08-24T14:50:32.672Z,56.96
2022-08-24T14:53:06.760Z,57.05
2022-08-24T14:56:01.474Z,56.71
2022-08-24T14:58:49.560Z,56.38
2022-08-24T15:01:18.952Z,57.11
2022-08-24T15:03:57.447Z,56.88
2022-08-24T15:06:59.171Z,57.02
2022-08-24T15:09:38.666Z,57.55
2022-08-24T15:12:14.419Z,57.63
2022-08-24T15:14:47.393Z,58.39
2022-08-24T15:17:18.652Z,59.02
2022-08-24T15:19:55.581Z,60.76
2022-08-24T15:22:44.127Z,61.34
2022-08-24T15:25:19.198Z,59.15
2022-08-24T15:27:57.729Z,59.42
2022-08-24T15:30:31.737Z,59.10
2022-08-24T15:33:14.957Z,57.84
2022-08-24T15:35:49.022Z,58.22
2022-08-24T15:38:23.144Z,57.93
2022-08-24T15:41:12.087Z,58.37
2022-08-24T15:43:44.697Z,58.33
2022-08-24T15:46:12.882Z,59.86
2022-08-24T15:48:41.726Z,60.37
2022-08-24T15:51:08.551Z,59.22
2022-08-24T15:53:36.663Z,58.19
2022-08-24T15:56:21.601Z,57.36
2022-08-24T15:58:48.939Z,58.03
2022-08-24T16:01:33.979Z,59.27
2022-08-24T16:04:11.508Z,59.98
2022-08-24T16:06:45.447Z,60.13
2022-08-24T16:09:35.191Z,59.17
2022-08-24T16:12:14.050Z,59.72
2022-08-24T16:14:49.097Z,60.03
2022-08-24T16:17:27.505Z,60.18
2022-08-24T16:19:57.618Z,61.37
2022-08-24T16:22:39.746Z,60.57
2022-08-24T16:25:09.443Z,60.64
2022-08-24T16:28:02.524Z,60.44
2022-08-24T16:30:40.906Z,61.50
2022-08-24T16:33:30.387Z,60.74
2022-08-24T16:35:58.996Z,60.89
2022-08-24T16:38:26.926Z,60.77
2022-08-24T16:40:53.785Z,60.25
2022-08-24T16:43:20.402Z,60.66
2022-08-24T16:45:47.099Z,61.34
2022-08-24T16:48:13.873Z,61.89
2022-08-24T16:50:40.470Z,62.29
2022-08-24T16:53:07.105Z,62.93
2022-08-24T16:55:33.714Z,63.11
2022-08-24T16:58:01.534Z,63.08
2022-08-24T17:00:29.217Z,63.67
2022-08-24T17:02:55.804Z,64.43
2022-08-24T17:05:22.531Z,64.88
2022-08-24T17:07:50.764Z,65.24
2022-08-24T17:10:19.770Z,65.44
2022-08-24T17:12:49.143Z,65.80
2022-08-24T17:15:16.510Z,66.59
2022-08-24T17:18:03.167Z,66.63
2022-08-24T17:20:30.269Z,66.64
2022-08-24T17:22:57.635Z,66.62
2022-08-24T17:25:25.248Z,66.88
2022-08-24T17:27:52.710Z,67.12
2022-08-24T17:30:22.915Z,67.10
2022-08-24T17:32:51.722Z,67.09
2022-08-24T17:35:20.750Z,67.27
2022-08-24T17:37:48.218Z,67.91
2022-08-24T17:40:19.004Z,68.29
2022-08-24T17:42:52.891Z,68.42
2022-08-24T17:45:23.025Z,68.60
2022-08-24T17:47:50.758Z,68.85
2022-08-24T17:50:19.243Z,68.87
2022-08-24T17:52:46.368Z,68.93
2022-08-24T17:55:14.644Z,69.27
2022-08-24T17:57:44.521Z,69.69
2022-08-24T18:00:14.055Z,69.87
2022-08-24T18:02:41.764Z,70.39
2022-08-24T18:05:10.344Z,70.77
2022-08-24T18:07:52.578Z,71.23
2022-08-24T18:10:23.824Z,71.97
2022-08-24T18:12:50.676Z,72.28
2022-08-24T18:15:17.529Z,72.66
2022-08-24T18:17:47.142Z,72.92
2022-08-24T18:20:15.651Z,73.01
2022-08-24T18:22:47.023Z,73.18
2022-08-24T18:25:18.330Z,73.39
2022-08-24T18:27:46.841Z,73.68
2022-08-24T18:30:22.596Z,74.18
2022-08-24T18:32:52.432Z,74.50
2022-08-24T18:35:19.961Z,74.70
2022-08-24T18:37:46.654Z,74.70
2022-08-24T18:40:20.373Z,74.98
2022-08-24T18:42:50.618Z,75.34
2022-08-24T18:45:17.443Z,75.35
2022-08-24T18:47:44.175Z,75.41
2022-08-24T18:50:11.562Z,75.25
2022-08-24T18:52:40.381Z,75.43
2022-08-24T18:55:09.559Z,75.36
2022-08-24T18:57:36.229Z,75.31
2022-08-24T19:00:04.947Z,75.36
2022-08-24T19:02:33.781Z,75.51
2022-08-24T19:05:14.687Z,75.68
2022-08-24T19:07:47.025Z,75.89
2022-08-24T19:10:17.433Z,76.00
2022-08-24T19:12:47.261Z,76.18
2022-08-24T19:15:37.775Z,76.19
2022-08-24T19:18:03.838Z,76.51
2022-08-24T19:20:33.466Z,76.44
2022-08-24T19:23:07.433Z,76.81
2022-08-24T19:25:35.418Z,76.83
2022-08-24T19:28:02.451Z,76.98
2022-08-24T19:30:29.044Z,76.91
2022-08-24T19:32:56.217Z,77.12
2022-08-24T19:35:23.217Z,77.32
2022-08-24T19:37:49.868Z,77.31
2022-08-24T19:40:18.087Z,77.45
2022-08-24T19:42:49.664Z,77.66
2022-08-24T19:45:38.024Z,77.83
2022-08-24T19:48:04.760Z,77.89
2022-08-24T19:50:35.538Z,78.00
2022-08-24T19:53:03.128Z,78.19
2022-08-24T19:55:29.969Z,78.30
2022-08-24T19:58:19.030Z,78.39
2022-08-24T20:00:51.082Z,78.49
2022-08-24T20:03:18.764Z,78.42
2022-08-24T20:05:45.819Z,78.66
2022-08-24T20:08:12.597Z,78.63
2022-08-24T20:10:39.246Z,78.76
2022-08-24T20:13:05.981Z,78.84
2022-08-24T20:15:33.578Z,78.73
2022-08-24T20:18:00.586Z,78.87
2022-08-24T20:20:29.197Z,79.04
2022-08-24T20:22:56.062Z,79.16
2022-08-24T20:25:22.743Z,79.27
2022-08-24T20:27:54.981Z,79.26
2022-08-24T20:30:34.806Z,79.44
2022-08-24T20:33:01.508Z,79.50
2022-08-24T20:35:29.601Z,79.55
2022-08-24T20:37:56.641Z,79.63
2022-08-24T20:40:24.005Z,79.55
2022-08-24T20:42:50.672Z,79.57
2022-08-24T20:45:17.388Z,79.65
2022-08-24T20:47:50.697Z,79.68
2022-08-24T20:50:20.907Z,79.80
2022-08-24T20:52:51.491Z,79.98
2022-08-24T20:55:18.821Z,79.96
2022-08-24T20:57:49.223Z,79.99
2022-08-24T21:00:17.264Z,80.00
2022-08-24T21:02:43.822Z,80.26
2022-08-24T21:05:10.625Z,80.33
2022-08-24T21:07:37.738Z,80.29
2022-08-24T21:10:06.637Z,80.41
2022-08-24T21:12:33.317Z,80.50
2022-08-24T21:14:59.887Z,80.51
2022-08-24T21:17:26.928Z,80.59
2022-08-24T21:19:53.574Z,80.74
2022-08-24T21:22:20.290Z,80.81
2022-08-24T21:24:47.050Z,80.97
2022-08-24T21:27:13.647Z,81.15
2022-08-24T21:29:40.268Z,81.16
2022-08-24T21:32:25.514Z,81.22
2022-08-24T21:34:52.116Z,81.52
2022-08-24T21:37:20.269Z,81.46
2022-08-24T21:39:47.651Z,81.48
2022-08-24T21:42:17.401Z,81.47
2022-08-24T21:44:46.806Z,81.71
2022-08-24T21:47:13.378Z,81.92
2022-08-24T21:49:41.300Z,81.82
2022-08-24T21:52:07.985Z,81.91
2022-08-24T21:54:34.651Z,82.01
2022-08-24T21:57:01.285Z,82.20
2022-08-24T21:59:28.125Z,82.28
2022-08-24T22:01:54.853Z,82.30
2022-08-24T22:04:21.475Z,82.26
2022-08-24T22:06:48.260Z,82.31
2022-08-24T22:09:16.880Z,82.29
2022-08-24T22:11:44.569Z,82.43
2022-08-24T22:14:11.837Z,82.59
2022-08-24T22:16:38.827Z,82.56
2022-08-24T22:19:05.757Z,82.56
2022-08-24T22:21:36.157Z,82.60
2022-08-24T22:24:03.498Z,82.73
2022-08-24T22:26:30.566Z,82.62
2022-08-24T22:28:57.839Z,82.55
2022-08-24T22:31:30.505Z,82.54
2022-08-24T22:33:59.462Z,82.61
2022-08-24T22:36:27.347Z,82.67
2022-08-24T22:38:55.370Z,82.70
2022-08-24T22:41:23.470Z,82.86
2022-08-24T22:44:08.634Z,82.97
2022-08-24T22:46:35.691Z,83.02
2022-08-24T22:49:03.463Z,83.10
2022-08-24T22:51:30.648Z,83.06
2022-08-24T22:53:57.682Z,83.22
2022-08-24T22:56:27.692Z,83.23
2022-08-24T22:58:55.902Z,83.25
2022-08-24T23:01:29.216Z,83.15
2022-08-24T23:03:57.551Z,83.14
2022-08-24T23:06:24.217Z,83.26
2022-08-24T23:08:51.015Z,83.40
2022-08-24T23:11:19.207Z,83.45
2022-08-24T23:13:45.778Z,83.42
2022-08-24T23:16:13.985Z,83.57
2022-08-24T23:18:59.388Z,83.70
2022-08-24T23:21:26.124Z,83.69
2022-08-24T23:23:54.695Z,83.72
2022-08-24T23:26:21.582Z,83.80
2022-08-24T23:28:50.372Z,83.68
2022-08-24T23:31:18.604Z,83.91
2022-08-24T23:33:45.715Z,83.92
2022-08-24T23:36:16.470Z,83.86
2022-08-24T23:38:43.601Z,83.86
2022-08-24T23:41:13.913Z,83.78
2022-08-24T23:43:41.380Z,83.77
2022-08-24T23:46:09.081Z,83.68
2022-08-24T23:48:37.593Z,83.78
2022-08-24T23:51:08.718Z,83.69
2022-08-24T23:53:35.581Z,83.82
2022-08-24T23:56:10.874Z,83.85
2022-08-24T23:58:39.396Z,83.90
